createdAt,value
2016-12-09T00:00:11.299Z,1008.88
2016-12-09T00:01:11.319Z,1008.87
2016-12-09T00:02:11.351Z,1008.85
2016-12-09T00:03:11.381Z,1008.84
2016-12-09T00:04:11.403Z,1008.82
2016-12-09T00:05:11.429Z,1008.76
2016-12-09T00:06:11.458Z,1008.76
2016-12-09T00:07:11.488Z,1008.74
2016-12-09T00:08:11.512Z,1008.71
2016-12-09T00:09:11.540Z,1008.74
2016-12-09T00:10:11.568Z,1008.73
2016-12-09T00:11:11.598Z,1008.73
2016-12-09T00:12:11.618Z,1008.72
2016-12-09T00:13:11.651Z,1008.71
2016-12-09T00:14:11.675Z,1008.69
2016-12-09T00:15:11.703Z,1008.71
2016-12-09T00:16:11.737Z,1008.7
2016-12-09T00:17:11.749Z,1008.72
2016-12-09T00:18:11.786Z,1008.75
2016-12-09T00:19:11.811Z,1008.81
2016-12-09T00:20:11.836Z,1008.76
2016-12-09T00:21:11.863Z,1008.78
2016-12-09T00:22:11.889Z,1008.79
2016-12-09T00:23:11.921Z,1008.82
2016-12-09T00:24:11.943Z,1008.78
2016-12-09T00:25:11.975Z,1008.72
2016-12-09T00:26:12.000Z,1008.73
2016-12-09T00:27:12.024Z,1008.72
2016-12-09T00:28:12.052Z,1008.68
2016-12-09T00:29:12.081Z,1008.73
2016-12-09T00:30:12.106Z,1008.73
2016-12-09T00:31:12.137Z,1008.71
2016-12-09T00:32:12.159Z,1008.68
2016-12-09T00:33:12.192Z,1008.74
2016-12-09T00:34:12.212Z,1008.7
2016-12-09T00:35:12.241Z,1008.72
2016-12-09T00:36:12.274Z,1008.68
2016-12-09T00:37:12.295Z,1008.68
2016-12-09T00:38:12.324Z,1008.67
2016-12-09T00:39:12.348Z,1008.68
2016-12-09T00:40:12.381Z,1008.68
2016-12-09T00:41:12.401Z,1008.68
2016-12-09T00:42:12.430Z,1008.71
2016-12-09T00:43:12.463Z,1008.74
2016-12-09T00:44:12.487Z,1008.68
2016-12-09T00:45:12.508Z,1008.68
2016-12-09T00:46:12.541Z,1008.7
2016-12-09T00:47:12.570Z,1008.64
2016-12-09T00:48:12.590Z,1008.66
2016-12-09T00:49:12.618Z,1008.65
2016-12-09T00:50:12.648Z,1008.68
2016-12-09T00:51:12.676Z,1008.68
2016-12-09T00:52:12.702Z,1008.66
2016-12-09T00:53:12.730Z,1008.63
2016-12-09T00:54:12.759Z,1008.66
2016-12-09T00:55:12.783Z,1008.61
2016-12-09T01:00:41.639Z,1008.56
2016-12-09T01:02:41.065Z,1008.59
2016-12-09T01:03:41.093Z,1008.56
2016-12-09T01:04:41.122Z,1008.54
2016-12-09T01:05:41.142Z,1008.53
2016-12-09T01:06:41.171Z,1008.52
2016-12-09T01:07:41.200Z,1008.53
2016-12-09T01:08:41.225Z,1008.56
2016-12-09T01:09:41.250Z,1008.52
2016-12-09T01:10:41.278Z,1008.54
2016-12-09T01:11:41.304Z,1008.57
2016-12-09T01:12:41.336Z,1008.61
2016-12-09T01:13:41.362Z,1008.56
2016-12-09T01:14:41.385Z,1008.58
2016-12-09T01:15:41.410Z,1008.56
2016-12-09T01:16:41.438Z,1008.63
2016-12-09T01:17:41.463Z,1008.61
2016-12-09T01:18:41.492Z,1008.56
2016-12-09T01:19:41.521Z,1008.57
2016-12-09T01:20:41.550Z,1008.57
2016-12-09T01:21:41.569Z,1008.61
2016-12-09T01:22:41.602Z,1008.62
2016-12-09T01:23:41.627Z,1008.65
2016-12-09T01:24:41.651Z,1008.67
2016-12-09T01:25:41.677Z,1008.62
2016-12-09T01:26:41.709Z,1008.63
2016-12-09T01:27:41.734Z,1008.62
2016-12-09T01:28:41.758Z,1008.62
2016-12-09T01:29:41.787Z,1008.63
2016-12-09T01:30:41.812Z,1008.67
2016-12-09T01:31:41.836Z,1008.72
2016-12-09T01:32:41.866Z,1008.69
2016-12-09T01:33:41.894Z,1008.76
2016-12-09T01:34:41.918Z,1008.79
2016-12-09T01:35:41.943Z,1008.78
2016-12-09T01:36:41.976Z,1008.79
2016-12-09T01:37:42.000Z,1008.85
2016-12-09T01:38:42.025Z,1008.84
2016-12-09T01:39:42.061Z,1008.87
2016-12-09T01:40:42.083Z,1008.86
2016-12-09T01:41:42.107Z,1008.86
2016-12-09T01:42:42.135Z,1008.87
2016-12-09T01:43:42.156Z,1008.87
2016-12-09T01:44:42.189Z,1008.86
2016-12-09T01:45:42.214Z,1008.86
2016-12-09T01:46:42.238Z,1008.81
2016-12-09T01:47:42.264Z,1008.83
2016-12-09T01:48:42.292Z,1008.85
2016-12-09T01:49:42.320Z,1008.85
2016-12-09T01:50:42.341Z,1008.79
2016-12-09T01:51:42.374Z,1008.84
2016-12-09T01:52:42.398Z,1008.82
2016-12-09T01:53:42.420Z,1008.88
2016-12-09T01:54:42.452Z,1008.87
2016-12-09T01:55:42.481Z,1008.9
2016-12-09T01:56:42.506Z,1008.88
2016-12-09T01:57:42.530Z,1008.86
2016-12-09T01:58:42.554Z,1008.89
2016-12-09T01:59:42.583Z,1008.91
2016-12-09T02:00:42.612Z,1008.88
2016-12-09T02:01:42.637Z,1008.87
2016-12-09T02:02:42.661Z,1008.88
2016-12-09T02:03:42.691Z,1008.92
2016-12-09T02:04:42.714Z,1008.92
2016-12-09T02:05:42.739Z,1008.92
2016-12-09T02:06:42.768Z,1008.88
2016-12-09T02:07:42.797Z,1008.89
2016-12-09T02:08:42.822Z,1008.87
2016-12-09T02:09:42.851Z,1008.87
2016-12-09T02:10:42.872Z,1008.84
2016-12-09T02:11:42.900Z,1008.82
2016-12-09T02:12:42.924Z,1008.86
2016-12-09T02:13:42.953Z,1008.79
2016-12-09T02:14:42.980Z,1008.79
2016-12-09T02:15:43.011Z,1008.78
2016-12-09T02:16:43.031Z,1008.76
2016-12-09T02:17:43.064Z,1008.76
2016-12-09T02:18:43.089Z,1008.78
2016-12-09T02:19:43.109Z,1008.76
2016-12-09T02:20:43.138Z,1008.76
2016-12-09T02:21:43.162Z,1008.75
2016-12-09T02:22:43.195Z,1008.71
2016-12-09T02:23:43.220Z,1008.71
2016-12-09T02:24:43.245Z,1008.7
2016-12-09T02:25:43.270Z,1008.73
2016-12-09T02:26:43.293Z,1008.74
2016-12-09T02:27:43.322Z,1008.73
2016-12-09T02:28:43.351Z,1008.79
2016-12-09T02:29:43.380Z,1008.79
2016-12-09T02:30:43.405Z,1008.77
2016-12-09T02:31:43.431Z,1008.79
2016-12-09T02:32:43.453Z,1008.75
2016-12-09T02:33:43.481Z,1008.79
2016-12-09T02:34:43.511Z,1008.79
2016-12-09T02:35:43.531Z,1008.79
2016-12-09T02:36:43.560Z,1008.8
2016-12-09T02:37:43.589Z,1008.74
2016-12-09T02:38:43.614Z,1008.8
2016-12-09T02:39:43.642Z,1008.76
2016-12-09T02:40:43.663Z,1008.75
2016-12-09T02:41:43.687Z,1008.75
2016-12-09T02:42:43.716Z,1008.81
2016-12-09T02:43:43.749Z,1008.8
2016-12-09T02:44:43.774Z,1008.78
2016-12-09T02:45:43.801Z,1008.76
2016-12-09T02:46:43.828Z,1008.79
2016-12-09T02:47:43.848Z,1008.73
2016-12-09T02:48:43.872Z,1008.72
2016-12-09T02:49:43.905Z,1008.71
2016-12-09T02:50:43.930Z,1008.77
2016-12-09T02:51:43.951Z,1008.76
2016-12-09T02:52:43.976Z,1008.78
2016-12-09T02:53:44.008Z,1008.81
2016-12-09T02:54:44.032Z,1008.84
2016-12-09T02:55:44.061Z,1008.81
2016-12-09T02:56:44.086Z,1008.73
2016-12-09T02:57:44.111Z,1008.76
2016-12-09T02:58:44.143Z,1008.78
2016-12-09T02:59:44.168Z,1008.77
2016-12-09T03:00:44.192Z,1008.8
2016-12-09T03:01:44.214Z,1008.8
2016-12-09T03:02:44.246Z,1008.83
2016-12-09T03:03:44.267Z,1008.81
2016-12-09T03:04:44.295Z,1008.8
2016-12-09T03:05:44.325Z,1008.81
2016-12-09T03:06:44.353Z,1008.81
2016-12-09T03:07:44.377Z,1008.86
2016-12-09T03:08:44.402Z,1008.84
2016-12-09T03:09:44.427Z,1008.86
2016-12-09T03:10:44.455Z,1008.86
2016-12-09T03:11:44.484Z,1008.87
2016-12-09T03:12:44.505Z,1008.87
2016-12-09T03:13:44.534Z,1008.86
2016-12-09T03:14:44.558Z,1008.84
2016-12-09T03:15:44.583Z,1008.82
2016-12-09T03:16:44.615Z,1008.82
2016-12-09T03:17:44.636Z,1008.83
2016-12-09T03:18:44.665Z,1008.8
2016-12-09T03:19:44.690Z,1008.73
2016-12-09T03:20:44.723Z,1008.74
2016-12-09T03:21:44.743Z,1008.71
2016-12-09T03:22:44.767Z,1008.69
2016-12-09T03:23:44.796Z,1008.69
2016-12-09T03:24:44.817Z,1008.69
2016-12-09T03:25:44.850Z,1008.72
2016-12-09T03:26:44.875Z,1008.69
2016-12-09T03:27:44.903Z,1008.72
2016-12-09T03:28:44.923Z,1008.73
2016-12-09T03:29:44.952Z,1008.71
2016-12-09T03:30:44.981Z,1008.72
2016-12-09T03:31:45.002Z,1008.67
2016-12-09T03:32:45.026Z,1008.68
2016-12-09T03:33:45.059Z,1008.68
2016-12-09T03:34:45.086Z,1008.69
2016-12-09T03:35:45.113Z,1008.67
2016-12-09T03:36:45.133Z,1008.67
2016-12-09T03:37:45.158Z,1008.7
2016-12-09T03:38:45.190Z,1008.67
2016-12-09T03:39:45.213Z,1008.67
2016-12-09T03:40:45.240Z,1008.69
2016-12-09T03:41:45.269Z,1008.67
2016-12-09T03:42:45.289Z,1008.68
2016-12-09T03:43:45.321Z,1008.68
2016-12-09T03:44:45.346Z,1008.67
2016-12-09T03:45:45.367Z,1008.65
2016-12-09T03:46:45.400Z,1008.64
2016-12-09T03:47:45.416Z,1008.62
2016-12-09T03:48:45.450Z,1008.65
2016-12-09T03:49:45.478Z,1008.59
2016-12-09T03:50:45.502Z,1008.6
2016-12-09T03:51:45.527Z,1008.62
2016-12-09T03:52:45.556Z,1008.58
2016-12-09T03:53:45.585Z,1008.59
2016-12-09T03:54:45.610Z,1008.58
2016-12-09T03:55:45.630Z,1008.57
2016-12-09T03:56:45.658Z,1008.55
2016-12-09T03:57:45.683Z,1008.52
2016-12-09T03:58:45.707Z,1008.5
2016-12-09T03:59:45.741Z,1008.51
2016-12-09T04:00:45.764Z,1008.47
2016-12-09T04:01:45.785Z,1008.46
2016-12-09T04:02:45.818Z,1008.47
2016-12-09T04:03:45.834Z,1008.48
2016-12-09T04:04:45.871Z,1008.44
2016-12-09T04:05:45.891Z,1008.46
2016-12-09T04:06:45.914Z,1008.52
2016-12-09T04:07:45.944Z,1008.53
2016-12-09T04:08:45.969Z,1008.5
2016-12-09T04:09:45.998Z,1008.5
2016-12-09T04:10:46.021Z,1008.49
2016-12-09T04:11:46.046Z,1008.45
2016-12-09T04:12:46.071Z,1008.48
2016-12-09T04:13:46.103Z,1008.47
2016-12-09T04:14:46.124Z,1008.51
2016-12-09T04:15:46.153Z,1008.47
2016-12-09T04:16:46.183Z,1008.49
2016-12-09T04:17:46.202Z,1008.44
2016-12-09T04:18:46.227Z,1008.51
2016-12-09T04:19:46.259Z,1008.54
2016-12-09T04:20:46.284Z,1008.58
2016-12-09T04:21:46.308Z,1008.55
2016-12-09T04:22:46.338Z,1008.6
2016-12-09T04:23:46.358Z,1008.59
2016-12-09T04:24:46.387Z,1008.55
2016-12-09T04:25:46.411Z,1008.57
2016-12-09T04:26:46.440Z,1008.53
2016-12-09T04:27:46.461Z,1008.51
2016-12-09T04:28:46.494Z,1008.5
2016-12-09T04:29:46.518Z,1008.54
2016-12-09T04:30:46.543Z,1008.55
2016-12-09T04:31:46.567Z,1008.51
2016-12-09T04:32:46.596Z,1008.45
2016-12-09T04:33:46.619Z,1008.51
2016-12-09T04:34:46.649Z,1008.44
2016-12-09T04:35:46.670Z,1008.45
2016-12-09T04:36:46.698Z,1008.47
2016-12-09T04:37:46.728Z,1008.48
2016-12-09T04:38:46.752Z,1008.51
2016-12-09T04:39:46.772Z,1008.5
2016-12-09T04:40:46.805Z,1008.56
2016-12-09T04:41:46.829Z,1008.53
2016-12-09T04:42:46.854Z,1008.58
2016-12-09T04:43:46.879Z,1008.61
2016-12-09T04:44:46.903Z,1008.58
2016-12-09T04:45:46.924Z,1008.56
2016-12-09T04:46:46.956Z,1008.57
2016-12-09T04:47:46.985Z,1008.57
2016-12-09T04:48:47.011Z,1008.61
2016-12-09T04:49:47.036Z,1008.57
2016-12-09T04:50:47.056Z,1008.6
2016-12-09T04:51:47.089Z,1008.62
2016-12-09T04:52:47.113Z,1008.63
2016-12-09T04:53:47.142Z,1008.63
2016-12-09T04:54:47.162Z,1008.59
2016-12-09T04:55:47.191Z,1008.61
2016-12-09T04:56:47.220Z,1008.63
2016-12-09T04:57:47.244Z,1008.59
2016-12-09T04:58:47.270Z,1008.58
2016-12-09T04:59:47.296Z,1008.56
2016-12-09T05:00:47.319Z,1008.57
2016-12-09T05:01:47.348Z,1008.58
2016-12-09T05:02:47.372Z,1008.53
2016-12-09T05:03:47.396Z,1008.54
2016-12-09T05:04:47.425Z,1008.55
2016-12-09T05:05:47.454Z,1008.57
2016-12-09T05:06:47.477Z,1008.59
2016-12-09T05:07:47.500Z,1008.63
2016-12-09T05:08:47.532Z,1008.63
2016-12-09T05:09:47.553Z,1008.62
2016-12-09T05:10:47.585Z,1008.62
2016-12-09T05:11:47.607Z,1008.6
2016-12-09T05:12:47.630Z,1008.65
2016-12-09T05:13:47.659Z,1008.65
2016-12-09T05:14:47.684Z,1008.66
2016-12-09T05:15:47.708Z,1008.68
2016-12-09T05:16:47.733Z,1008.62
2016-12-09T05:17:47.762Z,1008.66
2016-12-09T05:18:47.791Z,1008.66
2016-12-09T05:19:47.816Z,1008.65
2016-12-09T05:20:47.836Z,1008.66
2016-12-09T05:21:47.869Z,1008.69
2016-12-09T05:22:47.889Z,1008.69
2016-12-09T05:23:47.922Z,1008.72
2016-12-09T05:24:48.298Z,1008.74
2016-12-09T05:25:47.972Z,1008.71
2016-12-09T05:26:47.996Z,1008.73
2016-12-09T05:27:48.021Z,1008.74
2016-12-09T05:28:48.050Z,1008.68
2016-12-09T05:29:48.075Z,1008.69
2016-12-09T05:30:48.104Z,1008.7
2016-12-09T05:31:48.128Z,1008.69
2016-12-09T05:32:48.158Z,1008.74
2016-12-09T05:33:48.182Z,1008.72
2016-12-09T05:34:48.203Z,1008.74
2016-12-09T05:35:48.231Z,1008.67
2016-12-09T05:36:48.260Z,1008.69
2016-12-09T05:37:48.285Z,1008.73
2016-12-09T05:38:48.311Z,1008.73
2016-12-09T05:39:48.330Z,1008.72
2016-12-09T05:40:48.363Z,1008.69
2016-12-09T05:41:48.388Z,1008.64
2016-12-09T05:42:48.413Z,1008.65
2016-12-09T05:43:48.443Z,1008.67
2016-12-09T05:44:48.467Z,1008.69
2016-12-09T05:45:48.495Z,1008.65
2016-12-09T05:46:48.516Z,1008.64
2016-12-09T05:47:48.549Z,1008.69
2016-12-09T05:48:48.569Z,1008.64
2016-12-09T05:49:48.594Z,1008.66
2016-12-09T05:50:48.622Z,1008.64
2016-12-09T05:51:48.651Z,1008.71
2016-12-09T05:52:48.676Z,1008.71
2016-12-09T05:53:48.705Z,1008.75
2016-12-09T05:54:48.728Z,1008.73
2016-12-09T05:55:48.755Z,1008.71
2016-12-09T05:56:48.779Z,1008.76
2016-12-09T05:57:48.804Z,1008.79
2016-12-09T05:58:48.830Z,1008.73
2016-12-09T05:59:48.857Z,1008.72
2016-12-09T06:00:48.886Z,1008.72
2016-12-09T06:01:48.917Z,1008.74
2016-12-09T06:02:48.940Z,1008.73
2016-12-09T06:03:48.960Z,1008.72
2016-12-09T06:04:48.989Z,1008.69
2016-12-09T06:05:49.014Z,1008.68
2016-12-09T06:06:49.039Z,1008.68
2016-12-09T06:07:49.072Z,1008.68
2016-12-09T06:08:49.097Z,1008.69
2016-12-09T06:09:49.121Z,1008.67
2016-12-09T06:10:49.146Z,1008.69
2016-12-09T06:11:49.170Z,1008.69
2016-12-09T06:12:49.200Z,1008.68
2016-12-09T06:13:49.224Z,1008.7
2016-12-09T06:14:49.245Z,1008.75
2016-12-09T06:15:49.282Z,1008.78
2016-12-09T06:16:49.307Z,1008.78
2016-12-09T06:17:49.331Z,1008.83
2016-12-09T06:18:49.355Z,1008.83
2016-12-09T06:19:49.380Z,1008.89
2016-12-09T06:20:49.409Z,1008.87
2016-12-09T06:21:49.438Z,1008.89
2016-12-09T06:22:49.458Z,1008.87
2016-12-09T06:23:49.487Z,1008.81
2016-12-09T06:24:49.516Z,1008.77
2016-12-09T06:25:49.545Z,1008.81
2016-12-09T06:26:49.566Z,1008.79
2016-12-09T06:27:49.590Z,1008.84
2016-12-09T06:28:49.618Z,1008.82
2016-12-09T06:29:49.643Z,1008.87
2016-12-09T06:30:49.676Z,1008.84
2016-12-09T06:31:49.701Z,1008.84
2016-12-09T06:32:49.726Z,1008.89
2016-12-09T06:33:49.752Z,1008.88
2016-12-09T06:34:49.774Z,1008.93
2016-12-09T06:35:49.799Z,1008.92
2016-12-09T06:36:49.828Z,1008.91
2016-12-09T06:37:49.857Z,1008.96
2016-12-09T06:38:49.881Z,1008.97
2016-12-09T06:39:49.910Z,1008.94
2016-12-09T06:40:49.939Z,1009.02
2016-12-09T06:41:49.963Z,1009.03
2016-12-09T06:42:49.990Z,1009
2016-12-09T06:43:50.013Z,1009.04
2016-12-09T06:44:50.045Z,1009.06
2016-12-09T06:45:50.066Z,1009.04
2016-12-09T06:46:50.091Z,1009.07
2016-12-09T06:47:50.124Z,1009
2016-12-09T06:48:50.145Z,1009.02
2016-12-09T06:49:50.174Z,1009.01
2016-12-09T06:50:50.197Z,1009.01
2016-12-09T06:51:50.226Z,1009.02
2016-12-09T06:52:50.253Z,1009.03
2016-12-09T06:53:50.280Z,1009.05
2016-12-09T06:54:50.304Z,1009.01
2016-12-09T06:55:50.333Z,1009.05
2016-12-09T06:56:50.362Z,1009.04
2016-12-09T06:57:50.387Z,1009.08
2016-12-09T06:58:50.411Z,1009.13
2016-12-09T06:59:50.436Z,1009.14
2016-12-09T07:00:50.466Z,1009.18
2016-12-09T07:01:50.490Z,1009.15
2016-12-09T07:02:50.520Z,1009.12
2016-12-09T07:03:50.550Z,1009.14
2016-12-09T07:04:50.571Z,1009.15
2016-12-09T07:05:50.766Z,1009.15
2016-12-09T07:06:50.690Z,1009.16
2016-12-09T07:07:50.766Z,1009.17
2016-12-09T07:08:50.943Z,1009.11
2016-12-09T07:09:50.848Z,1009.03
2016-12-09T07:10:50.732Z,1009.05
2016-12-09T07:11:51.131Z,1009.03
2016-12-09T07:12:50.781Z,1009.01
2016-12-09T07:13:50.810Z,1009.03
2016-12-09T07:14:50.839Z,1009.03
2016-12-09T07:15:50.867Z,1009.05
2016-12-09T07:16:50.890Z,1009.03
2016-12-09T07:17:50.916Z,1009.05
2016-12-09T07:18:50.946Z,1009.04
2016-12-09T07:19:50.966Z,1009.03
2016-12-09T07:20:50.999Z,1008.99
2016-12-09T07:21:51.023Z,1009.03
2016-12-09T07:22:51.047Z,1009.02
2016-12-09T07:23:51.084Z,1009.03
2016-12-09T07:24:51.101Z,1009.07
2016-12-09T07:25:51.130Z,1009.03
2016-12-09T07:26:51.156Z,1008.99
2016-12-09T07:27:51.187Z,1009.05
2016-12-09T07:28:51.213Z,1009
2016-12-09T07:29:51.241Z,1008.98
2016-12-09T07:30:51.261Z,1008.99
2016-12-09T07:31:51.289Z,1008.98
2016-12-09T07:32:51.314Z,1008.97
2016-12-09T07:33:51.347Z,1008.97
2016-12-09T07:34:51.372Z,1009.04
2016-12-09T07:35:51.400Z,1009.1
2016-12-09T07:36:51.425Z,1009.05
2016-12-09T07:37:51.454Z,1009.05
2016-12-09T07:38:51.479Z,1009.09
2016-12-09T07:39:51.503Z,1009.08
2016-12-09T07:40:51.528Z,1009.12
2016-12-09T07:41:51.552Z,1009.1
2016-12-09T07:42:51.585Z,1009.14
2016-12-09T07:43:51.614Z,1009.12
2016-12-09T07:44:51.639Z,1009.15
2016-12-09T07:45:51.665Z,1009.17
2016-12-09T07:46:51.687Z,1009.12
2016-12-09T07:47:51.721Z,1009.13
2016-12-09T07:48:51.745Z,1009.17
2016-12-09T07:49:51.769Z,1009.13
2016-12-09T07:50:51.798Z,1009.12
2016-12-09T07:51:51.823Z,1009.13
2016-12-09T07:52:51.848Z,1009.1
2016-12-09T07:53:51.882Z,1009.11
2016-12-09T07:54:51.905Z,1009.12
2016-12-09T07:55:51.931Z,1009.12
2016-12-09T07:56:51.958Z,1009.12
2016-12-09T07:57:51.983Z,1009.11
2016-12-09T07:58:52.011Z,1009.14
2016-12-09T07:59:52.036Z,1009.11
2016-12-09T08:00:52.060Z,1009.11
2016-12-09T08:01:52.094Z,1009.12
2016-12-09T08:02:52.122Z,1009.11
2016-12-09T08:03:52.147Z,1009.1
2016-12-09T08:04:52.175Z,1009.15
2016-12-09T08:05:52.198Z,1009.17
2016-12-09T08:06:52.223Z,1009.17
2016-12-09T08:07:52.250Z,1009.16
2016-12-09T08:08:52.281Z,1009.16
2016-12-09T08:09:52.307Z,1009.19
2016-12-09T08:10:52.336Z,1009.15
2016-12-09T08:11:52.357Z,1009.14
2016-12-09T08:12:52.381Z,1009.14
2016-12-09T08:13:52.409Z,1009.18
2016-12-09T08:14:52.443Z,1009.16
2016-12-09T08:15:52.468Z,1009.19
2016-12-09T08:16:52.492Z,1009.2
2016-12-09T08:17:52.521Z,1009.17
2016-12-09T08:18:52.550Z,1009.21
2016-12-09T08:19:52.570Z,1009.22
2016-12-09T08:20:52.599Z,1009.21
2016-12-09T08:21:52.628Z,1009.2
2016-12-09T08:22:52.657Z,1009.22
2016-12-09T08:23:52.687Z,1009.24
2016-12-09T08:24:52.710Z,1009.26
2016-12-09T08:25:52.739Z,1009.25
2016-12-09T08:26:52.760Z,1009.28
2016-12-09T08:27:52.789Z,1009.28
2016-12-09T08:28:52.817Z,1009.28
2016-12-09T08:29:52.846Z,1009.32
2016-12-09T08:30:52.867Z,1009.31
2016-12-09T08:31:52.899Z,1009.35
2016-12-09T08:32:52.924Z,1009.35
2016-12-09T08:33:52.949Z,1009.4
2016-12-09T08:34:52.982Z,1009.41
2016-12-09T08:35:53.007Z,1009.44
2016-12-09T08:36:53.034Z,1009.41
2016-12-09T08:37:53.055Z,1009.48
2016-12-09T08:38:53.084Z,1009.49
2016-12-09T08:39:53.113Z,1009.54
2016-12-09T08:40:53.138Z,1009.55
2016-12-09T08:41:53.167Z,1009.53
2016-12-09T08:42:53.192Z,1009.54
2016-12-09T08:43:53.216Z,1009.52
2016-12-09T08:44:53.248Z,1009.51
2016-12-09T08:45:53.277Z,1009.54
2016-12-09T08:46:53.303Z,1009.54
2016-12-09T08:47:53.332Z,1009.57
2016-12-09T08:48:53.357Z,1009.54
2016-12-09T08:49:53.381Z,1009.53
2016-12-09T08:50:53.406Z,1009.54
2016-12-09T08:51:53.434Z,1009.54
2016-12-09T08:52:53.460Z,1009.56
2016-12-09T08:53:53.492Z,1009.54
2016-12-09T08:54:53.517Z,1009.56
2016-12-09T08:55:53.546Z,1009.54
2016-12-09T08:56:53.571Z,1009.58
2016-12-09T08:57:53.595Z,1009.56
2016-12-09T08:58:53.624Z,1009.55
2016-12-09T08:59:53.649Z,1009.55
2016-12-09T09:00:53.678Z,1009.54
2016-12-09T09:01:53.706Z,1009.46
2016-12-09T09:02:53.744Z,1009.47
2016-12-09T09:03:53.758Z,1009.47
2016-12-09T09:04:53.788Z,1009.49
2016-12-09T09:05:53.814Z,1009.49
2016-12-09T09:06:53.839Z,1009.5
2016-12-09T09:07:53.863Z,1009.46
2016-12-09T09:08:53.896Z,1009.47
2016-12-09T09:09:53.919Z,1009.51
2016-12-09T09:10:53.949Z,1009.51
2016-12-09T09:11:53.975Z,1009.48
2016-12-09T09:12:54.004Z,1009.47
2016-12-09T09:13:54.024Z,1009.47
2016-12-09T09:14:54.057Z,1009.44
2016-12-09T09:15:54.081Z,1009.5
2016-12-09T09:16:54.110Z,1009.52
2016-12-09T09:17:54.139Z,1009.51
2016-12-09T09:18:54.163Z,1009.5
2016-12-09T09:19:54.186Z,1009.52
2016-12-09T09:20:54.213Z,1009.57
2016-12-09T09:21:54.242Z,1009.57
2016-12-09T09:22:54.271Z,1009.57
2016-12-09T09:23:54.296Z,1009.54
2016-12-09T09:24:54.324Z,1009.57
2016-12-09T09:25:54.354Z,1009.57
2016-12-09T09:26:54.378Z,1009.57
2016-12-09T09:27:54.402Z,1009.57
2016-12-09T09:28:54.427Z,1009.61
2016-12-09T09:29:54.456Z,1009.6
2016-12-09T09:30:54.485Z,1009.6
2016-12-09T09:31:54.514Z,1009.59
2016-12-09T09:32:54.538Z,1009.57
2016-12-09T09:33:54.567Z,1009.6
2016-12-09T09:34:54.587Z,1009.62
2016-12-09T09:35:54.616Z,1009.62
2016-12-09T09:36:54.645Z,1009.61
2016-12-09T09:37:54.670Z,1009.58
2016-12-09T09:38:54.702Z,1009.61
2016-12-09T09:39:54.728Z,1009.61
2016-12-09T09:40:54.752Z,1009.59
2016-12-09T09:41:54.781Z,1009.58
2016-12-09T09:42:54.806Z,1009.63
2016-12-09T09:43:54.830Z,1009.61
2016-12-09T09:44:54.861Z,1009.61
2016-12-09T09:45:54.888Z,1009.63
2016-12-09T09:46:54.917Z,1009.57
2016-12-09T09:47:54.942Z,1009.57
2016-12-09T09:48:54.971Z,1009.54
2016-12-09T09:49:54.991Z,1009.54
2016-12-09T09:50:55.021Z,1009.55
2016-12-09T09:51:55.049Z,1009.56
2016-12-09T09:52:55.077Z,1009.56
2016-12-09T09:53:55.102Z,1009.57
2016-12-09T09:54:55.131Z,1009.52
2016-12-09T09:55:55.161Z,1009.6
2016-12-09T09:56:55.180Z,1009.57
2016-12-09T09:57:55.209Z,1009.57
2016-12-09T09:58:55.238Z,1009.55
2016-12-09T09:59:55.267Z,1009.57
2016-12-09T10:00:55.288Z,1009.61
2016-12-09T10:01:55.317Z,1009.6
2016-12-09T10:02:55.345Z,1009.57
2016-12-09T10:03:55.366Z,1009.55
2016-12-09T10:04:55.395Z,1009.54
2016-12-09T10:05:55.425Z,1009.55
2016-12-09T10:06:55.448Z,1009.49
2016-12-09T10:07:55.481Z,1009.53
2016-12-09T10:08:55.506Z,1009.44
2016-12-09T10:09:55.535Z,1009.43
2016-12-09T10:10:55.560Z,1009.43
2016-12-09T10:11:55.588Z,1009.44
2016-12-09T10:12:55.612Z,1009.38
2016-12-09T10:13:55.638Z,1009.4
2016-12-09T10:14:55.667Z,1009.39
2016-12-09T10:15:55.696Z,1009.37
2016-12-09T10:16:55.720Z,1009.41
2016-12-09T10:17:55.740Z,1009.4
2016-12-09T10:18:55.773Z,1009.36
2016-12-09T10:19:55.798Z,1009.42
2016-12-09T10:20:55.826Z,1009.38
2016-12-09T10:21:55.852Z,1009.34
2016-12-09T10:22:55.881Z,1009.3
2016-12-09T10:23:55.909Z,1009.34
2016-12-09T10:24:55.934Z,1009.33
2016-12-09T10:25:55.959Z,1009.27
2016-12-09T10:26:55.988Z,1009.29
2016-12-09T10:27:56.012Z,1009.29
2016-12-09T10:28:56.045Z,1009.27
2016-12-09T10:29:56.070Z,1009.27
2016-12-09T10:30:56.100Z,1009.25
2016-12-09T10:31:56.119Z,1009.26
2016-12-09T10:32:56.148Z,1009.22
2016-12-09T10:33:56.176Z,1009.27
2016-12-09T10:34:56.201Z,1009.26
2016-12-09T10:35:56.227Z,1009.25
2016-12-09T10:36:56.262Z,1009.23
2016-12-09T10:37:56.279Z,1009.22
2016-12-09T10:38:56.313Z,1009.25
2016-12-09T10:39:56.333Z,1009.23
2016-12-09T10:40:56.362Z,1009.27
2016-12-09T10:41:56.391Z,1009.25
2016-12-09T10:42:56.415Z,1009.23
2016-12-09T10:43:56.440Z,1009.17
2016-12-09T10:44:56.468Z,1009.21
2016-12-09T10:45:56.498Z,1009.21
2016-12-09T10:46:56.522Z,1009.23
2016-12-09T10:47:56.550Z,1009.26
2016-12-09T10:48:56.575Z,1009.26
2016-12-09T10:49:56.601Z,1009.23
2016-12-09T10:50:56.629Z,1009.26
2016-12-09T10:51:56.666Z,1009.25
2016-12-09T10:52:56.689Z,1009.29
2016-12-09T10:53:56.708Z,1009.24
2016-12-09T10:54:56.736Z,1009.22
2016-12-09T10:55:56.765Z,1009.22
2016-12-09T10:56:56.794Z,1009.22
2016-12-09T10:57:56.819Z,1009.2
2016-12-09T10:58:56.851Z,1009.25
2016-12-09T10:59:56.872Z,1009.22
2016-12-09T11:00:56.900Z,1009.19
2016-12-09T11:01:56.925Z,1009.2
2016-12-09T11:02:56.950Z,1009.24
2016-12-09T11:03:56.978Z,1009.22
2016-12-09T11:04:57.008Z,1009.2
2016-12-09T11:05:57.032Z,1009.23
2016-12-09T11:06:57.057Z,1009.27
2016-12-09T11:07:57.086Z,1009.27
2016-12-09T11:08:57.114Z,1009.26
2016-12-09T11:09:57.135Z,1009.33
2016-12-09T11:10:57.163Z,1009.37
2016-12-09T11:11:57.193Z,1009.33
2016-12-09T11:12:57.217Z,1009.27
2016-12-09T11:13:57.242Z,1009.28
2016-12-09T11:14:57.270Z,1009.24
2016-12-09T11:15:57.295Z,1009.23
2016-12-09T11:16:57.324Z,1009.24
2016-12-09T11:17:57.348Z,1009.21
2016-12-09T11:18:57.381Z,1009.23
2016-12-09T11:19:57.406Z,1009.22
2016-12-09T11:20:57.435Z,1009.21
2016-12-09T11:21:57.456Z,1009.22
2016-12-09T11:22:57.483Z,1009.19
2016-12-09T11:23:57.516Z,1009.25
2016-12-09T11:24:57.537Z,1009.17
2016-12-09T11:25:57.569Z,1009.18
2016-12-09T11:26:57.594Z,1009.11
2016-12-09T11:27:57.623Z,1009.11
2016-12-09T11:28:57.642Z,1009.12
2016-12-09T11:29:57.671Z,1009.11
2016-12-09T11:30:57.696Z,1009.11
2016-12-09T11:31:57.729Z,1009.12
2016-12-09T11:32:57.749Z,1009.08
2016-12-09T11:33:57.782Z,1009.06
2016-12-09T11:34:57.811Z,1009.06
2016-12-09T11:35:57.832Z,1009.05
2016-12-09T11:36:57.860Z,1009.08
2016-12-09T11:37:57.887Z,1009.07
2016-12-09T11:38:57.917Z,1009.06
2016-12-09T11:39:57.944Z,1009.07
2016-12-09T11:40:57.967Z,1009.04
2016-12-09T11:41:58.001Z,1008.99
2016-12-09T11:42:58.020Z,1008.97
2016-12-09T11:43:58.053Z,1008.97
2016-12-09T11:44:58.078Z,1008.94
2016-12-09T11:45:58.103Z,1008.88
2016-12-09T11:46:58.136Z,1008.86
2016-12-09T11:47:58.161Z,1008.84
2016-12-09T11:48:58.189Z,1008.85
2016-12-09T11:49:58.210Z,1008.87
2016-12-09T11:50:58.238Z,1008.89
2016-12-09T11:51:58.263Z,1008.91
2016-12-09T11:52:58.293Z,1008.93
2016-12-09T11:53:58.321Z,1008.91
2016-12-09T11:54:58.350Z,1008.93
2016-12-09T11:55:58.379Z,1008.9
2016-12-09T11:56:58.401Z,1008.92
2016-12-09T11:57:58.427Z,1008.89
2016-12-09T11:58:58.460Z,1008.82
2016-12-09T11:59:58.481Z,1008.81
2016-12-09T12:00:58.514Z,1008.78
2016-12-09T12:01:58.539Z,1008.77
2016-12-09T12:02:58.567Z,1008.75
2016-12-09T12:03:58.593Z,1008.76
2016-12-09T12:04:58.618Z,1008.74
2016-12-09T12:05:58.650Z,1008.75
2016-12-09T12:06:58.678Z,1008.75
2016-12-09T12:07:58.703Z,1008.71
2016-12-09T12:08:58.731Z,1008.7
2016-12-09T12:09:58.757Z,1008.78
2016-12-09T12:10:58.782Z,1008.78
2016-12-09T12:11:58.805Z,1008.74
2016-12-09T12:12:58.834Z,1008.68